createdAt,value
2022-09-05T00:02:02.624Z,16.63
2022-09-05T00:04:46.911Z,16.58
2022-09-05T00:07:58.186Z,16.60
2022-09-05T00:10:35.885Z,16.50
2022-09-05T00:13:07.115Z,16.45
2022-09-05T00:15:57.752Z,16.47
2022-09-05T00:23:06.144Z,16.44
2022-09-05T00:24:36.554Z,16.37
2022-09-05T00:27:58.111Z,16.33
2022-09-05T00:31:51.533Z,16.26
2022-09-05T00:33:31.709Z,16.25
2022-09-05T00:36:13.490Z,16.23
2022-09-05T00:38:51.296Z,16.24
2022-09-05T00:41:18.296Z,16.18
2022-09-05T00:43:49.482Z,16.17
2022-09-05T00:46:31.907Z,16.15
2022-09-05T00:49:20.032Z,16.17
2022-09-05T00:52:01.782Z,16.18
2022-09-05T00:55:05.846Z,16.12
2022-09-05T00:57:35.069Z,16.10
2022-09-05T01:00:22.498Z,16.05
2022-09-05T01:03:21.077Z,16.03
2022-09-05T01:06:14.983Z,16.02
2022-09-05T01:08:54.939Z,16.03
2022-09-05T01:11:50.012Z,16.05
2022-09-05T01:14:50.099Z,15.97
2022-09-05T01:17:48.411Z,15.94
2022-09-05T01:20:38.491Z,15.90
2022-09-05T01:23:23.697Z,15.89
2022-09-05T01:26:01.990Z,15.89
2022-09-05T01:29:16.854Z,15.87
2022-09-05T01:32:00.853Z,15.83
2022-09-05T01:34:38.678Z,15.74
2022-09-05T01:37:32.704Z,15.76
2022-09-05T01:40:19.167Z,15.75
2022-09-05T01:43:06.367Z,15.75
2022-09-05T01:46:11.719Z,15.76
2022-09-05T01:49:01.489Z,15.72
2022-09-05T01:52:07.994Z,15.59
2022-09-05T01:55:08.816Z,15.56
2022-09-05T01:57:50.605Z,15.49
2022-09-05T02:00:23.358Z,15.56
2022-09-05T02:03:00.202Z,15.57
2022-09-05T02:05:53.344Z,15.56
2022-09-05T02:08:56.654Z,15.57
2022-09-05T02:11:40.283Z,15.55
2022-09-05T02:14:27.072Z,15.52
2022-09-05T02:17:27.280Z,15.43
2022-09-05T02:20:14.001Z,15.44
2022-09-05T02:22:56.106Z,15.41
2022-09-05T02:26:03.273Z,15.40
2022-09-05T02:28:38.780Z,15.34
2022-09-05T02:31:20.540Z,15.30
2022-09-05T02:34:21.722Z,15.35
2022-09-05T02:37:14.725Z,15.35
2022-09-05T02:45:04.333Z,15.30
2022-09-05T02:45:18.726Z,15.29
2022-09-05T02:46:41.382Z,15.23
2022-09-05T02:49:41.870Z,15.17
2022-09-05T02:57:24.059Z,15.09
2022-09-05T02:57:38.559Z,15.14
2022-09-05T02:58:07.236Z,15.14
2022-09-05T03:00:50.965Z,15.12
2022-09-05T03:03:27.533Z,15.16
2022-09-05T03:05:58.978Z,15.13
2022-09-05T03:09:16.742Z,15.06
2022-09-05T03:11:59.138Z,15.09
2022-09-05T03:14:55.164Z,14.99
2022-09-05T03:17:24.169Z,15.01
2022-09-05T03:20:10.791Z,14.96
2022-09-05T03:23:00.771Z,14.93
2022-09-05T03:25:48.690Z,14.93
2022-09-05T03:28:41.395Z,14.89
2022-09-05T03:31:24.855Z,14.88
2022-09-05T03:34:34.475Z,14.81
2022-09-05T03:37:31.639Z,14.79
2022-09-05T03:40:15.989Z,14.83
2022-09-05T03:43:04.609Z,14.83
2022-09-05T03:45:59.455Z,14.85
2022-09-05T03:48:43.352Z,14.82
2022-09-05T03:57:10.744Z,14.79
2022-09-05T03:57:17.490Z,14.82
2022-09-05T03:57:37.096Z,14.78
2022-09-05T04:00:35.074Z,14.77
2022-09-05T04:08:08.243Z,14.67
2022-09-05T04:08:24.413Z,14.72
2022-09-05T04:09:50.441Z,14.64
2022-09-05T04:12:19.114Z,14.70
2022-09-05T04:14:57.657Z,14.67
2022-09-05T04:17:27.296Z,14.70
2022-09-05T04:20:03.116Z,14.62
2022-09-05T04:22:41.374Z,14.71
2022-09-05T04:25:24.688Z,14.71
2022-09-05T04:28:00.857Z,14.70
2022-09-05T04:30:49.457Z,14.67
2022-09-05T04:33:20.186Z,14.67
2022-09-05T04:35:55.779Z,14.64
2022-09-05T04:39:13.308Z,14.57
2022-09-05T04:41:45.030Z,14.59
2022-09-05T04:44:18.592Z,14.52
2022-09-05T04:46:52.814Z,14.57
2022-09-05T04:49:27.955Z,14.60
2022-09-05T04:52:21.913Z,14.60
2022-09-05T04:55:00.576Z,14.59
2022-09-05T04:57:52.740Z,14.56
2022-09-05T05:06:01.008Z,14.63
2022-09-05T05:06:11.032Z,14.62
2022-09-05T05:06:37.895Z,14.63
2022-09-05T05:09:19.934Z,14.60
2022-09-05T05:17:25.372Z,14.61
2022-09-05T05:18:07.222Z,14.64
2022-09-05T05:18:37.687Z,14.62
2022-09-05T05:20:59.534Z,14.64
2022-09-05T05:23:45.354Z,14.69
2022-09-05T05:26:22.527Z,14.67
2022-09-05T05:29:16.368Z,14.69
2022-09-05T05:31:55.847Z,14.71
2022-09-05T05:34:32.007Z,14.73
2022-09-05T05:37:14.626Z,14.84
2022-09-05T05:39:48.982Z,14.86
2022-09-05T05:42:24.159Z,14.91
2022-09-05T05:44:57.175Z,14.95
2022-09-05T05:47:38.066Z,15.04
2022-09-05T05:50:15.076Z,15.05
2022-09-05T05:53:02.268Z,15.07
2022-09-05T05:55:57.360Z,15.13
2022-09-05T05:59:00.961Z,15.14
2022-09-05T06:01:45.953Z,15.20
2022-09-05T06:04:49.796Z,15.28
2022-09-05T06:07:45.118Z,15.34
2022-09-05T06:14:49.534Z,15.35
2022-09-05T06:15:06.828Z,15.47
2022-09-05T06:17:23.492Z,15.58
2022-09-05T06:21:24.020Z,15.65
2022-09-05T06:23:39.435Z,15.67
2022-09-05T06:26:12.492Z,15.76
2022-09-05T06:28:48.155Z,15.80
2022-09-05T06:31:52.310Z,15.90
2022-09-05T06:34:35.203Z,15.95
2022-09-05T06:37:23.394Z,16.01
2022-09-05T06:40:02.806Z,16.09
2022-09-05T06:42:54.663Z,16.11
2022-09-05T06:45:58.924Z,16.21
2022-09-05T06:49:29.941Z,16.29
2022-09-05T06:51:36.404Z,16.38
2022-09-05T06:55:00.257Z,16.52
2022-09-05T06:57:55.127Z,16.59
2022-09-05T07:00:34.117Z,16.80
2022-09-05T07:03:19.988Z,16.97
2022-09-05T07:06:20.386Z,17.10
2022-09-05T07:09:05.027Z,17.16
2022-09-05T07:11:45.534Z,17.33
2022-09-05T07:14:20.884Z,17.39
2022-09-05T07:16:57.660Z,17.52
2022-09-05T07:19:30.808Z,17.67
2022-09-05T07:22:46.109Z,17.71
2022-09-05T07:25:17.995Z,17.77
2022-09-05T07:28:29.767Z,17.91
2022-09-05T07:30:49.645Z,18.06
2022-09-05T07:33:21.647Z,18.21
2022-09-05T07:35:51.873Z,18.35
2022-09-05T07:38:40.066Z,18.46
2022-09-05T07:41:30.569Z,18.69
2022-09-05T07:44:12.098Z,18.83
2022-09-05T07:46:41.375Z,19.01
2022-09-05T07:49:12.997Z,19.05
2022-09-05T07:56:49.196Z,19.13
2022-09-05T07:57:09.949Z,19.27
2022-09-05T07:57:50.626Z,19.30
2022-09-05T08:00:25.585Z,19.38
2022-09-05T08:02:55.071Z,19.50
2022-09-05T08:05:34.391Z,19.60
2022-09-05T08:08:14.493Z,19.74
2022-09-05T08:11:22.346Z,19.79
2022-09-05T08:13:48.792Z,20.02
2022-09-05T08:16:19.462Z,20.10
2022-09-05T08:18:54.591Z,20.14
2022-09-05T08:21:27.230Z,20.24
2022-09-05T08:24:13.818Z,20.42
2022-09-05T08:27:16.241Z,20.54
2022-09-05T08:29:52.538Z,20.59
2022-09-05T08:33:11.453Z,20.72
2022-09-05T08:35:47.142Z,20.77
2022-09-05T08:38:14.818Z,21.07
2022-09-05T08:41:07.330Z,21.28
2022-09-05T08:46:39.749Z,21.32
2022-09-05T08:46:49.603Z,21.39
2022-09-05T08:49:36.766Z,21.40
2022-09-05T08:52:17.348Z,21.43
2022-09-05T08:55:07.462Z,21.47
2022-09-05T08:57:46.203Z,21.57
2022-09-05T09:00:24.233Z,21.66
2022-09-05T09:03:06.983Z,21.73
2022-09-05T09:06:11.862Z,21.88
2022-09-05T09:08:57.264Z,21.97
2022-09-05T09:11:33.080Z,22.09
2022-09-05T09:14:31.043Z,22.22
2022-09-05T09:17:18.681Z,22.27
2022-09-05T09:19:52.045Z,22.45
2022-09-05T09:22:34.965Z,22.63
2022-09-05T09:25:16.585Z,22.85
2022-09-05T09:28:45.263Z,23.18
2022-09-05T09:30:58.285Z,23.52
2022-09-05T09:33:40.139Z,24.08
2022-09-05T09:36:55.379Z,24.39
2022-09-05T09:39:39.355Z,24.46
2022-09-05T09:42:32.748Z,24.58
2022-09-05T09:45:29.232Z,24.71
2022-09-05T09:48:20.500Z,25.14
2022-09-05T09:51:00.862Z,25.23
2022-09-05T09:53:36.929Z,25.40
2022-09-05T09:56:36.637Z,25.65
2022-09-05T09:59:36.628Z,25.99
2022-09-05T10:06:28.815Z,26.16
2022-09-05T10:10:52.717Z,26.27
2022-09-05T10:11:09.341Z,26.29
2022-09-05T10:12:28.518Z,26.31
2022-09-05T10:15:15.173Z,26.28
2022-09-05T10:18:20.324Z,26.31
2022-09-05T10:21:27.913Z,26.23
2022-09-05T10:24:13.186Z,26.28
2022-09-05T10:27:07.507Z,26.26
2022-09-05T10:29:55.874Z,26.19
2022-09-05T10:35:07.537Z,26.15
2022-09-05T10:35:29.196Z,26.15
2022-09-05T10:38:20.397Z,26.38
2022-09-05T10:41:21.043Z,26.36
2022-09-05T10:43:48.026Z,26.30
2022-09-05T10:46:46.701Z,26.37
2022-09-05T10:49:10.737Z,26.57
2022-09-05T10:52:05.432Z,26.55
2022-09-05T10:54:50.643Z,26.55
2022-09-05T10:58:03.633Z,26.59
2022-09-05T11:02:21.693Z,26.63
2022-09-05T11:03:49.405Z,26.67
2022-09-05T11:06:24.714Z,26.71
2022-09-05T11:09:16.494Z,26.83
2022-09-05T11:11:47.004Z,26.68
2022-09-05T11:14:40.215Z,26.69
2022-09-05T11:17:39.939Z,26.70
2022-09-05T11:20:51.382Z,26.82
2022-09-05T11:23:23.521Z,26.94
2022-09-05T11:26:02.163Z,27.07
2022-09-05T11:29:00.223Z,27.19
2022-09-05T11:32:25.381Z,27.46
2022-09-05T11:39:49.071Z,27.47
2022-09-05T11:40:04.813Z,27.46
2022-09-05T11:41:29.646Z,27.58
2022-09-05T11:44:25.547Z,27.60
2022-09-05T11:47:28.493Z,27.57
2022-09-05T11:50:20.097Z,27.30
2022-09-05T11:53:06.905Z,27.29
2022-09-05T11:55:49.177Z,27.30
2022-09-05T11:58:59.398Z,27.12
2022-09-05T12:02:23.474Z,27.19
2022-09-05T12:05:50.018Z,27.20
2022-09-05T12:08:14.278Z,27.45
2022-09-05T12:11:13.748Z,27.23
2022-09-05T12:13:44.755Z,27.23
2022-09-05T12:16:29.711Z,27.25
2022-09-05T12:22:26.634Z,27.42
2022-09-05T12:25:25.307Z,27.35
2022-09-05T12:29:27.475Z,27.36
2022-09-05T12:32:50.654Z,27.29
2022-09-05T12:36:04.060Z,27.28
2022-09-05T12:40:43.240Z,27.35
2022-09-05T12:41:36.952Z,27.41
2022-09-05T12:42:09.784Z,27.40
2022-09-05T12:44:34.881Z,27.48
2022-09-05T12:46:24.042Z,27.56
2022-09-05T12:49:06.967Z,27.69
2022-09-05T12:51:46.017Z,28.05
2022-09-05T12:54:33.331Z,28.27
2022-09-05T13:02:11.312Z,28.10
2022-09-05T13:03:02.751Z,28.09
2022-09-05T13:03:43.984Z,28.52
2022-09-05T13:06:08.300Z,28.47
2022-09-05T13:08:46.304Z,28.33
2022-09-05T13:14:50.316Z,28.20
2022-09-05T13:14:54.908Z,28.14
2022-09-05T13:17:16.167Z,28.06
2022-09-05T13:19:45.706Z,28.27
2022-09-05T13:22:16.339Z,28.47
2022-09-05T13:24:49.820Z,28.33
2022-09-05T13:27:36.627Z,28.12
2022-09-05T13:32:46.975Z,27.96
2022-09-05T13:38:19.481Z,27.73
2022-09-05T13:38:20.787Z,27.47
2022-09-05T13:39:32.490Z,27.42
2022-09-05T13:42:02.086Z,27.58
2022-09-05T13:44:30.598Z,27.52
2022-09-05T13:47:28.915Z,27.61
2022-09-05T13:50:07.153Z,27.70
2022-09-05T13:52:39.303Z,27.75
2022-09-05T13:55:21.126Z,27.87
2022-09-05T13:58:06.910Z,27.94
2022-09-05T14:00:33.275Z,28.10
2022-09-05T14:03:39.455Z,28.16
2022-09-05T14:06:45.161Z,28.22
2022-09-05T14:09:39.535Z,28.32
2022-09-05T14:12:37.220Z,28.10
2022-09-05T14:15:14.630Z,28.10
2022-09-05T14:18:21.316Z,28.08
2022-09-05T14:21:02.744Z,28.02
2022-09-05T14:23:58.108Z,28.04
2022-09-05T14:26:30.503Z,28.28
2022-09-05T14:29:06.686Z,28.32
2022-09-05T14:37:35.093Z,28.41
2022-09-05T14:37:43.109Z,28.53
2022-09-05T14:38:15.193Z,28.51
2022-09-05T14:41:02.794Z,28.52
2022-09-05T14:43:54.884Z,28.66
2022-09-05T14:46:44.800Z,28.60
2022-09-05T14:49:38.097Z,28.50
2022-09-05T14:52:26.016Z,28.54
2022-09-05T15:02:39.815Z,28.50
2022-09-05T15:02:52.913Z,28.43
2022-09-05T15:06:33.268Z,28.72
2022-09-05T15:12:14.022Z,28.78
2022-09-05T15:12:26.015Z,28.56
2022-09-05T15:14:36.380Z,28.40
2022-09-05T15:17:04.923Z,28.37
2022-09-05T15:20:06.490Z,28.27
2022-09-05T15:22:37.201Z,28.19
2022-09-05T15:25:17.763Z,28.32
2022-09-05T15:27:45.131Z,28.26
2022-09-05T15:30:21.086Z,28.28
2022-09-05T15:32:50.325Z,28.30
2022-09-05T15:35:37.665Z,28.24
2022-09-05T15:38:46.679Z,28.15
2022-09-05T15:41:28.932Z,28.34
2022-09-05T15:44:09.319Z,28.32
2022-09-05T15:46:45.627Z,28.38
2022-09-05T15:49:27.530Z,28.37
2022-09-05T15:51:56.501Z,28.29
2022-09-05T15:54:37.396Z,28.15
2022-09-05T15:57:08.349Z,27.97
2022-09-05T15:59:46.616Z,27.97
2022-09-05T16:02:21.025Z,27.84
2022-09-05T16:09:45.158Z,27.66
2022-09-05T16:10:43.606Z,27.45
2022-09-05T16:11:06.970Z,27.35
2022-09-05T16:13:53.173Z,27.29
2022-09-05T16:23:11.714Z,27.24
2022-09-05T16:23:33.123Z,27.14
2022-09-05T16:23:34.268Z,27.04
2022-09-05T16:25:31.098Z,26.98
2022-09-05T16:28:10.882Z,26.91
2022-09-05T16:30:39.728Z,26.88
2022-09-05T16:33:21.593Z,26.86
2022-09-05T16:35:57.388Z,26.82
2022-09-05T16:38:49.128Z,26.85
2022-09-05T16:41:36.985Z,26.90
2022-09-05T16:44:12.280Z,26.93
2022-09-05T16:47:01.566Z,26.95
2022-09-05T16:49:43.345Z,27.00
2022-09-05T16:52:17.264Z,26.88
2022-09-05T16:55:04.694Z,26.83
2022-09-05T16:57:34.965Z,26.66
2022-09-05T17:00:03.953Z,26.64
2022-09-05T17:02:43.524Z,26.70
2022-09-05T17:05:39.140Z,26.68
2022-09-05T17:08:29.988Z,26.90
2022-09-05T17:11:03.521Z,26.75
2022-09-05T17:13:48.942Z,26.65
2022-09-05T17:16:47.165Z,26.75
2022-09-05T17:19:19.017Z,26.68
2022-09-05T17:24:45.116Z,26.70
2022-09-05T17:29:25.251Z,26.58
2022-09-05T17:29:29.831Z,26.46
2022-09-05T17:33:44.692Z,26.21
2022-09-05T17:36:40.877Z,26.30
2022-09-05T17:39:39.918Z,26.16
2022-09-05T17:43:00.114Z,26.13
2022-09-05T17:45:44.217Z,25.99
2022-09-05T17:48:58.599Z,25.96
2022-09-05T17:51:35.368Z,25.95
2022-09-05T17:54:02.677Z,25.85
2022-09-05T17:56:38.219Z,25.70
2022-09-05T17:59:26.755Z,25.66
2022-09-05T18:02:02.041Z,25.53
2022-09-05T18:04:43.756Z,25.51
2022-09-05T18:07:25.738Z,25.49
2022-09-05T18:13:32.485Z,25.52
2022-09-05T18:16:00.196Z,25.50
2022-09-05T18:21:22.648Z,25.21
2022-09-05T18:24:05.780Z,25.29
2022-09-05T18:26:45.946Z,25.14
2022-09-05T18:29:57.458Z,25.22
2022-09-05T18:32:47.246Z,25.11
2022-09-05T18:35:36.891Z,25.04
2022-09-05T18:38:05.319Z,25.01
2022-09-05T18:40:56.140Z,25.01
2022-09-05T18:43:39.666Z,24.87
2022-09-05T18:46:17.834Z,24.64
2022-09-05T18:50:22.290Z,24.64
2022-09-05T18:52:08.381Z,24.36
2022-09-05T18:54:44.877Z,24.47
2022-09-05T18:57:28.737Z,24.28
2022-09-05T19:02:51.197Z,23.65
2022-09-05T19:05:43.783Z,23.58
2022-09-05T19:08:32.120Z,23.42
2022-09-05T19:11:27.479Z,23.33
2022-09-05T19:13:57.836Z,23.12
2022-09-05T19:16:47.318Z,23.09
2022-09-05T19:19:24.864Z,23.07
2022-09-05T19:22:13.259Z,22.92
2022-09-05T19:24:45.390Z,22.92
2022-09-05T19:28:26.320Z,22.97
2022-09-05T19:36:49.069Z,22.87
2022-09-05T19:36:54.022Z,22.94
2022-09-05T19:37:02.957Z,22.74
2022-09-05T19:39:23.163Z,22.68
2022-09-05T19:47:28.823Z,22.79
2022-09-05T19:47:43.863Z,22.79
2022-09-05T19:48:06.614Z,22.71
2022-09-05T19:50:38.444Z,22.73
2022-09-05T19:53:07.466Z,22.62
2022-09-05T19:55:41.743Z,22.61
2022-09-05T19:58:26.989Z,22.45
2022-09-05T20:01:06.878Z,22.47
2022-09-05T20:03:39.884Z,22.51
2022-09-05T20:06:31.038Z,22.50
2022-09-05T20:09:18.697Z,22.49
2022-09-05T20:11:47.620Z,22.44
2022-09-05T20:14:28.915Z,22.38
2022-09-05T20:17:00.150Z,22.40
2022-09-05T20:19:31.732Z,22.30
2022-09-05T20:22:37.113Z,22.13
2022-09-05T20:24:56.085Z,22.19
2022-09-05T20:27:28.168Z,22.21
2022-09-05T20:30:06.908Z,21.98
2022-09-05T20:32:41.362Z,22.00
2022-09-05T20:36:08.184Z,22.09
2022-09-05T20:43:10.064Z,22.04
2022-09-05T20:43:33.015Z,21.93
2022-09-05T20:44:15.466Z,21.91
2022-09-05T20:50:44.378Z,21.92
2022-09-05T20:54:14.518Z,21.69
2022-09-05T20:54:23.435Z,21.61
2022-09-05T20:55:38.524Z,21.64
2022-09-05T20:58:24.724Z,21.72
2022-09-05T21:01:21.778Z,21.53
2022-09-05T21:04:00.265Z,21.43
2022-09-05T21:06:28.821Z,21.35
2022-09-05T21:09:24.287Z,21.26
2022-09-05T21:11:55.022Z,21.15
2022-09-05T21:14:23.287Z,21.08
2022-09-05T21:16:59.720Z,21.13
2022-09-05T21:19:34.345Z,21.10
2022-09-05T21:22:06.086Z,21.09
2022-09-05T21:24:35.569Z,21.04
2022-09-05T21:27:15.939Z,21.10
2022-09-05T21:29:43.046Z,20.97
2022-09-05T21:32:15.490Z,20.94
2022-09-05T21:34:49.704Z,21.00
2022-09-05T21:37:18.538Z,21.00
2022-09-05T21:40:00.481Z,20.95
2022-09-05T21:45:33.829Z,20.89
2022-09-05T21:47:39.317Z,20.93
2022-09-05T21:48:08.658Z,20.87
2022-09-05T21:50:42.428Z,20.83
2022-09-05T21:57:53.650Z,20.85
2022-09-05T21:59:20.062Z,20.77
2022-09-05T21:59:29.832Z,20.79
2022-09-05T22:01:52.702Z,20.82
2022-09-05T22:04:20.504Z,20.73
2022-09-05T22:06:46.910Z,20.72
2022-09-05T22:09:14.335Z,20.74
2022-09-05T22:11:41.319Z,20.70
2022-09-05T22:14:07.927Z,20.67
2022-09-05T22:16:35.152Z,20.72
2022-09-05T22:19:02.204Z,20.65
2022-09-05T22:21:37.476Z,20.68
2022-09-05T22:24:08.797Z,20.67
2022-09-05T22:27:11.669Z,20.71
2022-09-05T22:29:32.328Z,20.75
2022-09-05T22:31:58.661Z,20.68
2022-09-05T22:34:24.993Z,20.61
2022-09-05T22:36:51.461Z,20.61
2022-09-05T22:39:37.916Z,20.69
2022-09-05T22:42:10.078Z,20.64
2022-09-05T22:44:40.891Z,20.75
2022-09-05T22:47:11.076Z,20.69
2022-09-05T22:49:37.442Z,20.63
2022-09-05T22:52:08.185Z,20.67
2022-09-05T22:54:35.554Z,20.69
2022-09-05T22:57:03.205Z,20.69
2022-09-05T22:59:29.922Z,20.67
2022-09-05T23:01:56.372Z,20.63
2022-09-05T23:04:22.890Z,20.67
2022-09-05T23:06:49.504Z,20.61
2022-09-05T23:09:15.926Z,20.51
2022-09-05T23:11:42.510Z,20.52
2022-09-05T23:14:08.991Z,20.44
2022-09-05T23:16:35.328Z,20.45
2022-09-05T23:19:01.699Z,20.38
2022-09-05T23:21:28.257Z,20.41
2022-09-05T23:23:54.720Z,20.34
2022-09-05T23:26:21.049Z,20.30
2022-09-05T23:28:47.382Z,20.28
2022-09-05T23:31:14.249Z,20.18
2022-09-05T23:33:41.853Z,20.26
2022-09-05T23:36:10.309Z,20.23
2022-09-05T23:38:36.675Z,20.18
2022-09-05T23:41:08.925Z,20.17
2022-09-05T23:43:35.411Z,20.07
2022-09-05T23:46:02.858Z,20.11
2022-09-05T23:48:30.031Z,20.04
2022-09-05T23:50:56.957Z,20.01
2022-09-05T23:53:23.773Z,19.93
2022-09-05T23:55:50.088Z,19.89
2022-09-05T23:58:16.637Z,19.87
